Terminal Aerodrome Forecast
Issued by NWS Charleston, WV

Current Version | Previous Version | Graphics & Text | Print | Product List | Glossary On
Versions: 1 2 3 4 5 6 7 8 9 10 11 12 13 14 15 16 17 18 19 20 21 22 23 24 25 26 27 28 29
663
FTUS41 KRLX 010528
TAFEKN
TAF
KEKN 010528Z 0106/0206 VRB02KT 3SM -SHRA BR OVC020
     FM011000 VRB02KT 1SM BR OVC005
     FM011400 VRB02KT 4SM BR OVC013
     FM011500 VRB02KT P6SM FEW035
     FM020300 VRB02KT 4SM BR BKN035=

USA.gov is the U.S. government's official web portal to all federal, state and local government web resources and services.